createdAt,value
2019-05-17T00:00:00.082Z,17.52
2019-05-17T00:00:59.966Z,17.48
2019-05-17T00:01:59.943Z,17.49
2019-05-17T00:02:59.871Z,17.51
2019-05-17T00:03:59.844Z,17.46
2019-05-17T00:04:59.799Z,17.44
2019-05-17T00:05:59.838Z,17.48
2019-05-17T00:06:59.691Z,17.42
2019-05-17T00:07:59.653Z,17.45
2019-05-17T00:08:59.590Z,17.46
2019-05-17T00:09:59.549Z,17.57
2019-05-17T00:10:59.485Z,17.60
2019-05-17T00:11:59.560Z,17.63
2019-05-17T00:12:59.390Z,17.60
2019-05-17T00:13:59.355Z,17.64
2019-05-17T00:14:59.294Z,17.60
2019-05-17T00:15:59.258Z,17.52
2019-05-17T00:16:59.197Z,17.63
2019-05-17T00:17:59.214Z,17.64
2019-05-17T00:18:59.128Z,17.63
2019-05-17T00:19:59.077Z,17.56
2019-05-17T00:20:59.019Z,17.67
2019-05-17T00:21:58.969Z,17.65
2019-05-17T00:22:58.909Z,17.71
2019-05-17T00:23:58.961Z,17.80
2019-05-17T00:24:58.834Z,17.74
2019-05-17T00:25:58.777Z,17.78
2019-05-17T00:26:58.728Z,17.74
2019-05-17T00:27:58.697Z,17.76
2019-05-17T00:28:58.643Z,17.74
2019-05-17T00:29:58.622Z,17.74
2019-05-17T00:30:58.533Z,17.70
2019-05-17T00:31:58.490Z,17.70
2019-05-17T00:32:58.427Z,17.71
2019-05-17T00:33:58.387Z,17.74
2019-05-17T00:34:58.357Z,17.70
2019-05-17T00:35:58.340Z,17.68
2019-05-17T00:36:58.253Z,17.71
2019-05-17T00:37:58.201Z,17.80
2019-05-17T00:38:58.142Z,17.70
2019-05-17T00:39:58.107Z,17.64
2019-05-17T00:40:58.052Z,17.71
2019-05-17T00:41:58.054Z,17.68
2019-05-17T00:42:57.957Z,17.74
2019-05-17T00:43:57.912Z,17.76
2019-05-17T00:44:57.872Z,17.86
2019-05-17T00:45:57.835Z,17.71
2019-05-17T00:46:58.817Z,17.72
2019-05-17T00:47:57.778Z,17.70
2019-05-17T00:48:57.670Z,17.70
2019-05-17T00:49:57.611Z,17.74
2019-05-17T00:51:01.879Z,17.82
2019-05-17T00:51:57.528Z,17.76
2019-05-17T00:52:57.493Z,17.76
2019-05-17T00:53:57.478Z,17.86
2019-05-17T00:54:57.380Z,17.80
2019-05-17T00:55:57.452Z,17.78
2019-05-17T00:56:57.287Z,17.78
2019-05-17T00:57:57.226Z,17.74
2019-05-17T00:58:57.202Z,17.83
2019-05-17T00:59:57.143Z,17.82
2019-05-17T01:00:57.256Z,17.74
2019-05-17T01:01:57.047Z,17.80
2019-05-17T01:02:57.411Z,17.68
2019-05-17T01:03:57.233Z,17.72
2019-05-17T01:04:56.985Z,17.74
2019-05-17T01:06:01.711Z,17.79
2019-05-17T01:06:56.815Z,17.89
2019-05-17T01:07:57.314Z,17.87
2019-05-17T01:09:01.900Z,17.79
2019-05-17T01:09:56.755Z,17.76
2019-05-17T01:10:56.747Z,17.72
2019-05-17T01:11:56.751Z,17.74
2019-05-17T01:12:57.545Z,17.82
2019-05-17T01:13:58.510Z,17.83
2019-05-17T01:14:58.255Z,17.86
2019-05-17T01:15:56.735Z,17.86
2019-05-17T01:16:56.570Z,17.78
2019-05-17T01:17:56.407Z,17.85
2019-05-17T01:18:57.351Z,17.78
2019-05-17T01:19:57.418Z,17.79
2019-05-17T01:20:56.802Z,17.82
2019-05-17T01:21:56.828Z,17.82
2019-05-17T01:22:56.653Z,17.87
2019-05-17T01:23:56.305Z,17.86
2019-05-17T01:24:56.930Z,17.86
2019-05-17T01:25:56.681Z,17.95
2019-05-17T01:26:57.392Z,17.89
2019-05-17T01:27:56.378Z,17.83
2019-05-17T01:28:57.341Z,17.80
2019-05-17T01:29:57.297Z,17.83
2019-05-17T01:30:57.028Z,17.78
2019-05-17T01:31:57.080Z,17.80
2019-05-17T01:32:56.993Z,17.90
2019-05-17T01:33:56.538Z,17.83
2019-05-17T01:34:56.471Z,17.83
2019-05-17T01:35:57.286Z,17.83
2019-05-17T01:36:56.932Z,17.85
2019-05-17T01:37:56.520Z,17.86
2019-05-17T01:38:57.439Z,17.82
2019-05-17T01:39:57.252Z,17.83
2019-05-17T01:40:56.423Z,17.86
2019-05-17T01:41:57.241Z,17.87
2019-05-17T01:42:55.085Z,17.90
2019-05-17T01:43:56.888Z,17.85
2019-05-17T01:44:56.750Z,17.86
2019-05-17T01:45:57.270Z,17.79
2019-05-17T01:46:56.716Z,17.87
2019-05-17T01:47:56.327Z,17.83
2019-05-17T01:48:54.783Z,17.83
2019-05-17T01:49:54.734Z,17.92
2019-05-17T01:50:56.708Z,17.90
2019-05-17T01:51:56.776Z,17.92
2019-05-17T01:52:56.486Z,17.94
2019-05-17T01:53:54.555Z,17.94
2019-05-17T01:54:54.494Z,17.89
2019-05-17T01:55:56.660Z,17.95
2019-05-17T01:56:56.533Z,17.94
2019-05-17T01:57:56.392Z,17.90
2019-05-17T01:58:54.307Z,17.90
2019-05-17T01:59:54.246Z,17.90
2019-05-17T02:00:54.210Z,17.90
2019-05-17T02:01:56.419Z,17.89
2019-05-17T02:02:54.110Z,17.89
2019-05-17T02:03:54.054Z,17.97
2019-05-17T02:04:54.027Z,17.89
2019-05-17T02:05:56.454Z,18.00
2019-05-17T02:06:53.924Z,17.92
2019-05-17T02:07:53.874Z,17.85
2019-05-17T02:08:53.814Z,17.94
2019-05-17T02:09:53.790Z,17.98
2019-05-17T02:10:53.718Z,18.01
2019-05-17T02:11:53.670Z,17.98
2019-05-17T02:12:53.647Z,17.97
2019-05-17T02:13:53.574Z,17.94
2019-05-17T02:14:53.547Z,17.94
2019-05-17T02:15:53.491Z,18.00
2019-05-17T02:16:53.442Z,17.97
2019-05-17T02:17:53.395Z,18.03
2019-05-17T02:18:53.357Z,18.05
2019-05-17T02:19:53.286Z,18.03
2019-05-17T02:20:53.263Z,18.01
2019-05-17T02:21:53.203Z,17.98
2019-05-17T02:22:53.154Z,18.03
2019-05-17T02:23:53.109Z,17.98
2019-05-17T02:24:53.059Z,18.04
2019-05-17T02:25:53.023Z,18.01
2019-05-17T02:26:52.952Z,17.95
2019-05-17T02:27:52.903Z,18.00
2019-05-17T02:28:52.876Z,17.89
2019-05-17T02:29:52.818Z,17.94
2019-05-17T02:30:53.127Z,17.92
2019-05-17T02:31:52.784Z,17.90
2019-05-17T02:32:54.023Z,17.90
2019-05-17T02:33:53.521Z,17.90
2019-05-17T02:34:53.084Z,17.95
2019-05-17T02:35:53.641Z,18.03
2019-05-17T02:36:53.358Z,18.03
2019-05-17T02:37:53.393Z,17.97
2019-05-17T02:38:53.207Z,17.90
2019-05-17T02:40:02.383Z,17.90
2019-05-17T02:40:53.685Z,17.94
2019-05-17T02:41:53.286Z,17.95
2019-05-17T02:42:53.554Z,17.87
2019-05-17T02:43:53.393Z,17.90
2019-05-17T02:44:53.166Z,17.80
2019-05-17T02:45:52.917Z,17.82
2019-05-17T02:46:53.704Z,17.85
2019-05-17T02:47:53.737Z,17.87
2019-05-17T02:48:53.927Z,17.89
2019-05-17T02:49:52.501Z,17.83
2019-05-17T02:50:53.282Z,17.85
2019-05-17T02:51:52.800Z,17.82
2019-05-17T02:52:52.841Z,17.89
2019-05-17T02:53:52.685Z,17.86
2019-05-17T02:54:52.689Z,17.89
2019-05-17T02:55:53.875Z,17.89
2019-05-17T02:56:53.848Z,17.85
2019-05-17T02:57:52.940Z,17.87
2019-05-17T02:58:53.328Z,17.80
2019-05-17T02:59:52.497Z,17.85
2019-05-17T03:00:53.270Z,17.76
2019-05-17T03:01:52.696Z,17.85
2019-05-17T03:02:53.580Z,17.72
2019-05-17T03:03:52.889Z,17.78
2019-05-17T03:04:52.596Z,17.72
2019-05-17T03:05:53.565Z,17.85
2019-05-17T03:06:53.208Z,17.85
2019-05-17T03:07:52.803Z,17.74
2019-05-17T03:08:52.510Z,17.79
2019-05-17T03:09:54.956Z,17.78
2019-05-17T03:10:53.551Z,17.82
2019-05-17T03:11:53.848Z,17.86
2019-05-17T03:12:52.964Z,17.94
2019-05-17T03:13:52.562Z,17.89
2019-05-17T03:14:52.868Z,17.92
2019-05-17T03:15:52.785Z,17.85
2019-05-17T03:16:53.431Z,17.83
2019-05-17T03:17:53.421Z,17.80
2019-05-17T03:18:53.021Z,17.85
2019-05-17T03:19:52.972Z,17.74
2019-05-17T03:20:52.516Z,17.76
2019-05-17T03:21:53.309Z,17.72
2019-05-17T03:22:52.566Z,17.76
2019-05-17T03:23:50.221Z,17.78
2019-05-17T03:24:53.075Z,17.74
2019-05-17T03:25:52.437Z,17.72
2019-05-17T03:26:52.604Z,17.74
2019-05-17T03:27:53.350Z,17.78
2019-05-17T03:28:53.584Z,17.78
2019-05-17T03:29:53.497Z,17.78
2019-05-17T03:30:55.628Z,17.74
2019-05-17T03:31:58.061Z,17.78
2019-05-17T03:32:55.472Z,17.70
2019-05-17T03:33:55.087Z,17.68
2019-05-17T03:34:55.286Z,17.68
2019-05-17T03:35:49.667Z,17.64
2019-05-17T03:36:55.771Z,17.70
2019-05-17T03:37:52.891Z,17.59
2019-05-17T03:38:49.510Z,17.60
2019-05-17T03:39:49.462Z,17.63
2019-05-17T03:41:11.870Z,17.67
2019-05-17T03:41:49.372Z,17.64
2019-05-17T03:42:49.310Z,17.68
2019-05-17T03:43:49.287Z,17.70
2019-05-17T03:44:49.231Z,17.67
2019-05-17T03:45:49.186Z,17.67
2019-05-17T03:46:49.122Z,17.70
2019-05-17T03:47:49.091Z,17.72
2019-05-17T03:48:49.022Z,17.78
2019-05-17T03:49:49.000Z,17.90
2019-05-17T03:50:48.944Z,17.92
2019-05-17T03:51:48.901Z,17.86
2019-05-17T03:52:48.844Z,17.90
2019-05-17T03:53:48.795Z,17.90
2019-05-17T03:54:48.748Z,17.86
2019-05-17T03:55:48.755Z,17.83
2019-05-17T03:56:48.652Z,17.87
2019-05-17T03:57:48.604Z,17.89
2019-05-17T03:58:48.543Z,17.87
2019-05-17T03:59:48.509Z,17.76
2019-05-17T04:00:48.461Z,17.72
2019-05-17T04:01:48.425Z,17.76
2019-05-17T04:02:48.364Z,17.70
2019-05-17T04:03:48.324Z,17.76
2019-05-17T04:04:48.282Z,17.72
2019-05-17T04:05:48.211Z,17.67
2019-05-17T04:06:48.197Z,17.70
2019-05-17T04:07:48.125Z,17.67
2019-05-17T04:08:48.097Z,17.60
2019-05-17T04:09:48.026Z,17.57
2019-05-17T04:10:47.984Z,17.64
2019-05-17T04:11:47.935Z,17.65
2019-05-17T04:12:47.893Z,17.70
2019-05-17T04:13:47.828Z,17.59
2019-05-17T04:14:47.791Z,17.67
2019-05-17T04:15:47.752Z,17.72
2019-05-17T04:16:47.683Z,17.78
2019-05-17T04:17:47.661Z,17.79
2019-05-17T04:18:47.601Z,17.87
2019-05-17T04:19:47.540Z,17.86
2019-05-17T04:20:47.492Z,17.83
2019-05-17T04:21:47.475Z,17.85
2019-05-17T04:22:47.409Z,17.79
2019-05-17T04:23:47.356Z,17.72
2019-05-17T04:24:47.316Z,17.76
2019-05-17T04:25:47.264Z,17.80
2019-05-17T04:26:47.230Z,17.76
2019-05-17T04:27:47.165Z,17.72
2019-05-17T04:28:47.127Z,17.74
2019-05-17T04:29:47.086Z,17.74
2019-05-17T04:30:47.013Z,17.74
2019-05-17T04:31:46.987Z,17.79
2019-05-17T04:32:46.934Z,17.78
2019-05-17T04:33:46.878Z,17.76
2019-05-17T04:34:46.835Z,17.72
2019-05-17T04:35:46.774Z,17.83
2019-05-17T04:36:46.747Z,17.85
2019-05-17T04:37:46.678Z,17.83
2019-05-17T04:38:46.642Z,17.79
2019-05-17T04:39:46.583Z,17.70
2019-05-17T04:40:46.549Z,17.65
2019-05-17T04:41:50.355Z,17.65
2019-05-17T04:42:46.448Z,17.64
2019-05-17T04:43:46.391Z,17.60
2019-05-17T04:44:46.359Z,17.65
2019-05-17T04:45:46.319Z,17.67
2019-05-17T04:46:46.273Z,17.70
2019-05-17T04:47:46.201Z,17.64
2019-05-17T04:48:46.177Z,17.67
2019-05-17T04:49:46.118Z,17.70
2019-05-17T04:50:46.081Z,17.65
2019-05-17T04:51:46.034Z,17.63
2019-05-17T04:52:45.980Z,17.63
2019-05-17T04:53:45.912Z,17.67
2019-05-17T04:54:45.879Z,17.63
2019-05-17T04:55:45.829Z,17.57
2019-05-17T04:56:45.778Z,17.67
2019-05-17T04:57:45.743Z,17.67
2019-05-17T04:58:45.682Z,17.70
2019-05-17T04:59:45.633Z,17.64
2019-05-17T05:00:45.591Z,17.60
2019-05-17T05:01:45.530Z,17.70
2019-05-17T05:02:45.481Z,17.71
2019-05-17T05:03:45.446Z,17.67
2019-05-17T05:04:45.391Z,17.68
2019-05-17T05:05:45.354Z,17.71
2019-05-17T05:06:45.310Z,17.68
2019-05-17T05:07:45.252Z,17.68
2019-05-17T05:08:45.216Z,17.74
2019-05-17T05:09:45.158Z,17.72
2019-05-17T05:10:45.119Z,17.80
2019-05-17T05:11:57.004Z,17.74
2019-05-17T05:12:45.023Z,17.85
2019-05-17T05:13:44.967Z,17.92
2019-05-17T05:14:44.928Z,17.80
2019-05-17T05:15:45.002Z,17.83
2019-05-17T05:16:44.825Z,17.67
2019-05-17T05:17:44.775Z,17.78
2019-05-17T05:18:44.726Z,17.79
2019-05-17T05:19:44.688Z,17.74
2019-05-17T05:20:44.624Z,17.78
2019-05-17T05:21:44.580Z,17.80
2019-05-17T05:22:44.523Z,17.68
2019-05-17T05:23:44.477Z,17.78
2019-05-17T05:24:44.436Z,17.59
2019-05-17T05:25:44.390Z,17.63
2019-05-17T05:26:44.339Z,17.64
2019-05-17T05:27:44.307Z,17.67
2019-05-17T05:28:44.257Z,17.65
2019-05-17T05:29:44.195Z,17.56
2019-05-17T05:30:44.147Z,17.65
2019-05-17T05:31:44.100Z,17.68
2019-05-17T05:32:44.052Z,17.65
2019-05-17T05:33:44.008Z,17.67
2019-05-17T05:34:46.377Z,17.63
2019-05-17T05:35:43.901Z,17.63
2019-05-17T05:36:43.864Z,17.60
2019-05-17T05:37:43.817Z,17.74
2019-05-17T05:38:43.759Z,17.67
2019-05-17T05:39:43.708Z,17.72
2019-05-17T05:40:43.660Z,17.72
2019-05-17T05:41:43.637Z,17.68
2019-05-17T05:42:43.576Z,17.67
2019-05-17T05:43:43.524Z,17.74
2019-05-17T05:44:43.489Z,17.71
2019-05-17T05:45:43.432Z,17.65
2019-05-17T05:46:43.399Z,17.78
2019-05-17T05:47:43.348Z,17.72
2019-05-17T05:48:43.287Z,17.71
2019-05-17T05:49:43.255Z,17.68
2019-05-17T05:50:43.516Z,17.72
2019-05-17T05:51:43.133Z,17.65
2019-05-17T05:52:43.093Z,17.71
2019-05-17T05:53:43.057Z,17.74
2019-05-17T05:54:43.010Z,17.74
2019-05-17T05:55:43.339Z,17.68
2019-05-17T05:56:42.909Z,17.67
2019-05-17T05:57:42.861Z,17.74
2019-05-17T05:58:42.990Z,17.71
2019-05-17T05:59:42.771Z,17.68
2019-05-17T06:00:43.124Z,17.78
2019-05-17T06:01:42.667Z,17.71
2019-05-17T06:02:42.610Z,17.71
2019-05-17T06:03:42.560Z,17.67
2019-05-17T06:04:42.567Z,17.82
2019-05-17T06:05:42.679Z,17.76
2019-05-17T06:06:42.426Z,17.72
2019-05-17T06:07:42.378Z,17.72
2019-05-17T06:08:42.342Z,17.78
2019-05-17T06:09:42.483Z,17.71
2019-05-17T06:10:42.891Z,17.70
2019-05-17T06:11:42.187Z,17.74
2019-05-17T06:12:43.407Z,17.72
2019-05-17T06:13:42.104Z,17.80
2019-05-17T06:14:42.030Z,17.74
2019-05-17T06:15:43.013Z,17.74
2019-05-17T06:16:42.619Z,17.74
2019-05-17T06:17:42.771Z,17.79
2019-05-17T06:18:42.469Z,17.68
2019-05-17T06:19:42.233Z,17.79
2019-05-17T06:20:42.113Z,17.85
2019-05-17T06:21:42.715Z,17.82
2019-05-17T06:22:42.782Z,17.80
2019-05-17T06:23:42.463Z,17.74
2019-05-17T06:24:42.522Z,17.83
2019-05-17T06:25:43.587Z,17.89
2019-05-17T06:26:42.095Z,17.83
2019-05-17T06:27:41.695Z,17.85
2019-05-17T06:28:42.460Z,17.79
2019-05-17T06:29:41.596Z,17.87
2019-05-17T06:30:43.051Z,17.85
2019-05-17T06:31:43.329Z,17.83
2019-05-17T06:32:43.332Z,17.83
2019-05-17T06:33:42.172Z,17.87
2019-05-17T06:34:42.336Z,17.89
2019-05-17T06:35:42.245Z,17.90
2019-05-17T06:36:42.285Z,17.85
2019-05-17T06:37:42.215Z,17.83
2019-05-17T06:38:42.026Z,17.82
2019-05-17T06:39:41.947Z,17.86
2019-05-17T06:40:41.956Z,17.80
2019-05-17T06:41:41.955Z,17.72
2019-05-17T06:42:44.746Z,17.71
2019-05-17T06:43:41.611Z,17.70
2019-05-17T06:44:41.794Z,17.70
2019-05-17T06:45:41.821Z,17.71
2019-05-17T06:46:41.819Z,17.74
2019-05-17T06:47:42.647Z,17.65
2019-05-17T06:48:42.359Z,17.74
2019-05-17T06:49:42.375Z,17.68
2019-05-17T06:50:42.573Z,17.68
2019-05-17T06:51:42.380Z,17.72
2019-05-17T06:52:43.124Z,17.74
2019-05-17T06:53:40.189Z,17.72
2019-05-17T06:54:41.741Z,17.74
2019-05-17T06:55:42.295Z,17.71
2019-05-17T06:56:41.846Z,17.68
2019-05-17T06:57:39.996Z,17.67
2019-05-17T06:58:39.935Z,17.74
2019-05-17T06:59:39.889Z,17.68
2019-05-17T07:00:40.460Z,17.63
2019-05-17T07:01:40.996Z,17.65
2019-05-17T07:02:40.226Z,17.72
2019-05-17T07:03:40.005Z,17.78
2019-05-17T07:04:39.689Z,17.78
2019-05-17T07:05:40.354Z,17.68
2019-05-17T07:06:40.485Z,17.74
2019-05-17T07:07:40.522Z,17.71
2019-05-17T07:08:40.219Z,17.70
2019-05-17T07:09:40.083Z,17.71
2019-05-17T07:10:39.951Z,17.72
2019-05-17T07:11:39.821Z,17.68
2019-05-17T07:12:54.503Z,17.70
2019-05-17T07:13:39.620Z,17.68
2019-05-17T07:14:40.098Z,17.64
2019-05-17T07:15:46.817Z,17.70
2019-05-17T07:16:39.742Z,17.72
2019-05-17T07:17:40.060Z,17.76
2019-05-17T07:18:39.989Z,17.79
2019-05-17T07:19:40.049Z,17.71
2019-05-17T07:20:39.513Z,17.76
2019-05-17T07:21:40.390Z,17.78
2019-05-17T07:22:40.809Z,17.68
2019-05-17T07:23:39.678Z,17.72
2019-05-17T07:24:39.690Z,17.72
2019-05-17T07:25:39.646Z,17.74
2019-05-17T07:26:39.343Z,17.79
2019-05-17T07:27:42.680Z,17.74
2019-05-17T07:28:40.483Z,17.76
2019-05-17T07:29:40.351Z,17.76
2019-05-17T07:30:39.954Z,17.76
2019-05-17T07:31:40.426Z,17.76
2019-05-17T07:32:40.683Z,17.85
2019-05-17T07:33:39.880Z,17.74
2019-05-17T07:34:40.146Z,17.78
2019-05-17T07:35:39.645Z,17.68
2019-05-17T07:36:39.711Z,17.68
2019-05-17T07:37:39.722Z,17.76
2019-05-17T07:38:39.668Z,17.79
2019-05-17T07:39:40.059Z,17.71
2019-05-17T07:40:39.924Z,17.78
2019-05-17T07:41:39.946Z,17.82
2019-05-17T07:42:39.686Z,17.68
2019-05-17T07:43:37.786Z,17.76
2019-05-17T07:44:37.727Z,17.80
2019-05-17T07:45:40.179Z,17.79
2019-05-17T07:46:39.975Z,17.78
2019-05-17T07:47:40.117Z,17.79
2019-05-17T07:48:37.542Z,17.71
2019-05-17T07:49:40.326Z,17.71
2019-05-17T07:50:39.588Z,17.79
2019-05-17T07:51:39.431Z,17.74
2019-05-17T07:52:39.669Z,17.70
2019-05-17T07:53:37.315Z,17.86
2019-05-17T07:54:39.783Z,17.86
2019-05-17T07:55:39.640Z,17.82
2019-05-17T07:56:39.993Z,17.87
2019-05-17T07:57:37.123Z,17.92
2019-05-17T07:58:37.076Z,17.94
2019-05-17T07:59:37.019Z,17.94
2019-05-17T08:00:39.636Z,17.90
2019-05-17T08:01:36.912Z,17.85
2019-05-17T08:02:36.871Z,17.90
2019-05-17T08:03:36.841Z,17.90
2019-05-17T08:04:36.767Z,17.90
2019-05-17T08:05:36.722Z,17.87
2019-05-17T08:06:36.686Z,17.90
2019-05-17T08:07:36.637Z,17.98
2019-05-17T08:08:36.585Z,17.92
2019-05-17T08:09:36.527Z,17.92
2019-05-17T08:10:36.481Z,17.89
2019-05-17T08:11:36.444Z,17.89
2019-05-17T08:12:36.397Z,17.87
2019-05-17T08:13:36.358Z,17.87
2019-05-17T08:14:36.288Z,17.86
2019-05-17T08:15:36.239Z,17.85
2019-05-17T08:16:36.191Z,17.90
2019-05-17T08:17:36.169Z,17.87
2019-05-17T08:18:36.108Z,17.89
2019-05-17T08:19:36.059Z,17.85
2019-05-17T08:20:36.016Z,17.82
2019-05-17T08:21:35.964Z,17.80
2019-05-17T08:22:35.919Z,17.89
2019-05-17T08:23:35.869Z,17.87
2019-05-17T08:24:35.822Z,17.92
2019-05-17T08:25:49.722Z,17.76
2019-05-17T08:26:35.724Z,17.78
2019-05-17T08:27:35.694Z,17.78
2019-05-17T08:28:35.709Z,17.68
2019-05-17T08:29:35.581Z,17.72
2019-05-17T08:30:35.543Z,17.83
2019-05-17T08:31:35.481Z,17.74
2019-05-17T08:32:35.427Z,17.78
2019-05-17T08:33:35.385Z,17.79
2019-05-17T08:34:35.341Z,17.86
2019-05-17T08:35:35.306Z,17.86
2019-05-17T08:36:35.253Z,17.80
2019-05-17T08:37:35.196Z,17.83
2019-05-17T08:38:35.161Z,17.90
2019-05-17T08:39:35.114Z,17.95
2019-05-17T08:40:35.055Z,17.95
2019-05-17T08:41:35.001Z,17.90
2019-05-17T08:42:34.961Z,17.92
2019-05-17T08:43:45.113Z,17.89
2019-05-17T08:44:34.862Z,17.95
2019-05-17T08:45:34.814Z,17.92
2019-05-17T08:46:34.765Z,17.90
2019-05-17T08:47:34.719Z,17.94
2019-05-17T08:48:34.683Z,17.98
2019-05-17T08:49:34.634Z,17.89
2019-05-17T08:50:34.574Z,17.86
2019-05-17T08:51:34.536Z,17.97
2019-05-17T08:52:34.493Z,17.94
2019-05-17T08:53:34.431Z,17.95
2019-05-17T08:54:34.371Z,18.03
2019-05-17T08:55:34.332Z,17.98
2019-05-17T08:56:34.299Z,18.00
2019-05-17T08:57:34.248Z,18.01
2019-05-17T08:58:34.204Z,17.95
2019-05-17T08:59:34.156Z,17.95
2019-05-17T09:00:34.111Z,17.92
2019-05-17T09:01:34.069Z,17.89
2019-05-17T09:02:34.009Z,17.89
2019-05-17T09:03:33.964Z,17.87
2019-05-17T09:04:33.984Z,17.90
2019-05-17T09:05:33.866Z,17.94
2019-05-17T09:06:33.800Z,17.92
2019-05-17T09:07:33.750Z,17.92
2019-05-17T09:08:33.714Z,17.87
2019-05-17T09:09:33.666Z,17.90
2019-05-17T09:10:33.605Z,17.90
2019-05-17T09:11:33.581Z,17.90
2019-05-17T09:12:33.484Z,17.94
2019-05-17T09:13:33.470Z,17.92
2019-05-17T09:14:33.426Z,17.92
2019-05-17T09:15:33.374Z,17.92
2019-05-17T09:16:33.332Z,17.89
2019-05-17T09:17:33.296Z,17.83
2019-05-17T09:18:33.244Z,17.79
2019-05-17T09:19:33.206Z,17.83
2019-05-17T09:20:33.141Z,17.85
2019-05-17T09:21:33.091Z,17.83
2019-05-17T09:22:33.056Z,17.89
2019-05-17T09:23:32.992Z,17.85
2019-05-17T09:24:32.936Z,17.82
2019-05-17T09:25:32.912Z,17.83
2019-05-17T09:26:32.842Z,17.83
2019-05-17T09:27:32.805Z,17.83
2019-05-17T09:28:32.754Z,17.89
2019-05-17T09:29:32.707Z,17.85
2019-05-17T09:30:32.664Z,17.90
2019-05-17T09:31:32.611Z,17.83
2019-05-17T09:32:32.555Z,17.86
2019-05-17T09:33:32.524Z,17.85
2019-05-17T09:34:32.481Z,17.90
2019-05-17T09:35:32.434Z,17.94
2019-05-17T09:36:32.383Z,17.90
2019-05-17T09:37:32.328Z,18.00
2019-05-17T09:38:32.293Z,17.92
2019-05-17T09:39:32.232Z,18.00
2019-05-17T09:40:32.171Z,17.98
2019-05-17T09:41:32.132Z,17.97
2019-05-17T09:42:32.087Z,18.00
2019-05-17T09:43:32.043Z,18.00
2019-05-17T09:44:32.003Z,17.97
2019-05-17T09:45:31.948Z,18.00
2019-05-17T09:46:31.883Z,17.94
2019-05-17T09:47:31.849Z,17.98
2019-05-17T09:48:31.803Z,18.03
2019-05-17T09:49:31.764Z,18.03
2019-05-17T09:50:31.716Z,18.00
2019-05-17T09:51:31.657Z,17.95
2019-05-17T09:52:31.596Z,18.07
2019-05-17T09:53:31.561Z,18.03
2019-05-17T09:54:41.363Z,18.03
2019-05-17T09:55:31.453Z,18.07
2019-05-17T09:56:31.405Z,18.08
2019-05-17T09:57:31.368Z,17.98
2019-05-17T09:58:31.336Z,18.08
2019-05-17T09:59:31.274Z,18.01
2019-05-17T10:00:31.236Z,18.03
2019-05-17T10:01:31.187Z,18.05
2019-05-17T10:02:31.117Z,18.15
2019-05-17T10:03:31.073Z,18.15
2019-05-17T10:04:31.035Z,18.11
2019-05-17T10:05:31.305Z,18.15
2019-05-17T10:06:30.929Z,18.11
2019-05-17T10:07:30.892Z,18.13
2019-05-17T10:08:30.843Z,18.15
2019-05-17T10:09:30.807Z,18.19
2019-05-17T10:10:30.747Z,18.18
2019-05-17T10:11:30.882Z,18.19
2019-05-17T10:12:30.655Z,18.15
2019-05-17T10:13:30.614Z,18.26
2019-05-17T10:14:31.432Z,18.26
2019-05-17T10:15:30.573Z,18.13
2019-05-17T10:16:30.816Z,18.15
2019-05-17T10:17:30.402Z,18.19
2019-05-17T10:18:30.385Z,18.10
2019-05-17T10:19:30.320Z,18.15
2019-05-17T10:20:30.270Z,18.10
2019-05-17T10:21:30.472Z,18.04
2019-05-17T10:22:30.564Z,18.08
2019-05-17T10:23:30.124Z,18.16
2019-05-17T10:24:38.120Z,18.22
2019-05-17T10:25:30.027Z,18.10
2019-05-17T10:26:30.487Z,18.13
2019-05-17T10:27:30.327Z,18.03
2019-05-17T10:28:29.901Z,18.05
2019-05-17T10:29:30.026Z,17.97
2019-05-17T10:30:30.022Z,18.05
2019-05-17T10:31:30.409Z,18.04
2019-05-17T10:32:31.011Z,18.07
2019-05-17T10:33:29.665Z,18.05
2019-05-17T10:34:29.603Z,17.98
2019-05-17T10:35:29.690Z,18.04
2019-05-17T10:36:29.520Z,18.11
2019-05-17T10:37:30.295Z,18.08
2019-05-17T10:38:30.037Z,18.11
2019-05-17T10:39:29.752Z,18.04
2019-05-17T10:40:29.932Z,18.03
2019-05-17T10:41:30.122Z,18.03
2019-05-17T10:42:30.553Z,18.23
2019-05-17T10:43:29.871Z,18.08
2019-05-17T10:44:43.574Z,18.13
2019-05-17T10:45:30.462Z,18.13
2019-05-17T10:46:30.019Z,18.10
2019-05-17T10:47:30.170Z,18.07
2019-05-17T10:48:30.085Z,18.03
2019-05-17T10:49:29.525Z,18.00
2019-05-17T10:50:29.775Z,18.07
2019-05-17T10:51:29.609Z,18.11
2019-05-17T10:52:29.979Z,17.95
2019-05-17T10:53:29.728Z,18.01
2019-05-17T10:54:30.089Z,18.03
2019-05-17T10:55:30.202Z,17.97
2019-05-17T10:56:28.559Z,18.08
2019-05-17T10:57:30.305Z,18.03
2019-05-17T10:58:29.646Z,17.98
2019-05-17T10:59:28.421Z,17.95
2019-05-17T11:00:30.343Z,18.07
2019-05-17T11:01:30.480Z,18.07
2019-05-17T11:02:30.419Z,17.97
2019-05-17T11:03:29.611Z,18.04
2019-05-17T11:04:28.178Z,18.08
2019-05-17T11:05:30.627Z,18.13
2019-05-17T11:06:30.143Z,18.08
2019-05-17T11:07:28.010Z,18.10
2019-05-17T11:08:27.977Z,18.15
2019-05-17T11:09:30.865Z,18.19
2019-05-17T11:10:27.867Z,18.16
2019-05-17T11:11:27.868Z,18.18
2019-05-17T11:12:27.789Z,18.16
2019-05-17T11:13:27.730Z,18.19
2019-05-17T11:14:27.696Z,18.25
2019-05-17T11:15:27.641Z,18.18
2019-05-17T11:16:27.578Z,18.11
2019-05-17T11:17:27.552Z,18.18
2019-05-17T11:18:27.497Z,18.18
2019-05-17T11:19:27.455Z,18.25
2019-05-17T11:20:27.420Z,18.03
2019-05-17T11:21:27.355Z,18.11
2019-05-17T11:22:27.293Z,18.18
2019-05-17T11:23:27.289Z,18.11
2019-05-17T11:24:27.213Z,18.01
2019-05-17T11:25:27.176Z,18.01
2019-05-17T11:26:27.116Z,18.03
2019-05-17T11:27:27.060Z,18.05
2019-05-17T11:28:27.007Z,17.98
2019-05-17T11:29:26.974Z,18.07
2019-05-17T11:30:26.921Z,18.03
2019-05-17T11:31:26.873Z,18.15
2019-05-17T11:32:26.841Z,18.11
2019-05-17T11:33:26.785Z,18.16
2019-05-17T11:34:26.733Z,18.11
2019-05-17T11:35:26.685Z,18.23
2019-05-17T11:36:26.630Z,18.22
2019-05-17T11:37:26.589Z,18.23
2019-05-17T11:38:26.549Z,18.18
2019-05-17T11:39:26.502Z,18.18
2019-05-17T11:40:26.473Z,18.00
2019-05-17T11:41:26.391Z,18.04
2019-05-17T11:42:26.350Z,18.00
2019-05-17T11:43:26.332Z,18.15
2019-05-17T11:44:26.259Z,18.13
2019-05-17T11:45:29.107Z,18.28
2019-05-17T11:46:35.712Z,18.18
2019-05-17T11:47:26.121Z,18.22
2019-05-17T11:48:26.052Z,18.29
2019-05-17T11:49:26.021Z,18.22
2019-05-17T11:50:25.958Z,18.25
2019-05-17T11:51:27.502Z,18.26
2019-05-17T11:52:25.873Z,18.33
2019-05-17T11:53:25.838Z,18.31
2019-05-17T11:54:25.778Z,18.29
2019-05-17T11:55:25.811Z,18.34
2019-05-17T11:56:25.692Z,18.28
2019-05-17T11:57:25.684Z,18.13
2019-05-17T11:58:25.595Z,18.15
2019-05-17T11:59:25.530Z,18.18
2019-05-17T12:00:25.481Z,18.18
2019-05-17T12:01:25.445Z,18.15
2019-05-17T12:02:25.383Z,18.19
2019-05-17T12:03:25.377Z,18.23
2019-05-17T12:04:25.305Z,18.19
2019-05-17T12:05:25.241Z,18.19
2019-05-17T12:06:25.208Z,18.16
2019-05-17T12:07:25.188Z,18.23
2019-05-17T12:08:25.106Z,18.19
2019-05-17T12:09:36.460Z,18.18
2019-05-17T12:10:25.056Z,18.29
2019-05-17T12:11:24.970Z,18.28
2019-05-17T12:12:24.906Z,18.34
2019-05-17T12:13:24.858Z,18.33
2019-05-17T12:14:24.813Z,18.25
2019-05-17T12:15:24.800Z,18.25
2019-05-17T12:16:24.731Z,18.28
2019-05-17T12:17:24.692Z,18.28
2019-05-17T12:18:24.619Z,18.26
2019-05-17T12:19:24.579Z,18.31
2019-05-17T12:20:24.545Z,18.29
2019-05-17T12:21:24.516Z,18.37
2019-05-17T12:22:24.441Z,18.41
2019-05-17T12:23:24.396Z,18.45
2019-05-17T12:24:24.355Z,18.35
2019-05-17T12:25:24.302Z,18.44
2019-05-17T12:26:24.353Z,18.41
2019-05-17T12:27:24.228Z,18.45
2019-05-17T12:28:24.156Z,18.50
2019-05-17T12:29:24.096Z,18.35
2019-05-17T12:30:24.048Z,18.44
2019-05-17T12:31:24.014Z,18.34
2019-05-17T12:32:23.964Z,18.50
2019-05-17T12:33:23.917Z,18.45
2019-05-17T12:34:23.880Z,18.40
2019-05-17T12:35:23.826Z,18.49
2019-05-17T12:36:23.768Z,18.43
2019-05-17T12:37:23.739Z,18.49
2019-05-17T12:38:23.679Z,18.49
2019-05-17T12:39:23.634Z,18.49
2019-05-17T12:40:23.580Z,18.53
2019-05-17T12:41:23.531Z,18.58
2019-05-17T12:42:23.522Z,18.53
2019-05-17T12:43:23.442Z,18.50
2019-05-17T12:44:23.449Z,18.49
2019-05-17T12:45:23.354Z,18.53
2019-05-17T12:46:23.305Z,18.45
2019-05-17T12:47:23.256Z,18.45
2019-05-17T12:48:23.206Z,18.41
2019-05-17T12:49:23.155Z,18.41
2019-05-17T12:50:23.118Z,18.40
2019-05-17T12:51:23.053Z,18.33